Time;durP1;ratioP1;P1;durP2;ratioP2;P2;SDS_P1;SDS_P2;PMS_P1;PMS_P2;Temp;Humidity;BMP_temperature;BMP_pressure;BME280_temperature;BME280_humidity;BME280_pressure;Samples;Min_cycle;Max_cycle;Signal;HPM_P1;HPM_P2
2021/12/09 00:01:40;;;;;;;3.30;2.08;;;17.50;51.70;;;;;;5150765;27;45229;-78
2021/12/09 00:04:18;;;;;;;4.45;1.75;;;17.50;51.70;;;;;;5152439;27;45277;-78
2021/12/09 00:06:47;;;;;;;5.20;2.83;;;17.50;50.40;;;;;;5151734;27;45260;-78
2021/12/09 00:09:18;;;;;;;4.07;2.00;;;17.40;49.80;;;;;;5146679;27;46501;-78
2021/12/09 00:11:47;;;;;;;3.22;1.63;;;17.40;49.80;;;;;;5151834;27;45232;-78
2021/12/09 00:14:19;;;;;;;3.20;1.73;;;17.40;48.80;;;;;;5151869;27;45246;-78
2021/12/09 00:16:47;;;;;;;3.83;1.80;;;17.40;49.30;;;;;;5151258;27;45310;-79
2021/12/09 00:19:16;;;;;;;2.40;1.38;;;17.40;49.00;;;;;;5151151;27;46517;-79
2021/12/09 00:21:45;;;;;;;2.75;1.75;;;17.40;48.90;;;;;;5149399;27;45352;-78
2021/12/09 00:24:14;;;;;;;2.53;1.80;;;17.40;49.00;;;;;;5151022;27;45582;-79
2021/12/09 00:26:44;;;;;;;2.67;1.55;;;17.40;48.90;;;;;;5152144;27;45381;-78
2021/12/09 00:29:14;;;;;;;2.83;1.50;;;17.40;48.80;;;;;;5151118;27;47510;-79
2021/12/09 00:31:43;;;;;;;2.90;1.50;;;17.40;48.80;;;;;;5149675;27;45206;-78
2021/12/09 00:34:12;;;;;;;2.92;1.55;;;17.40;48.60;;;;;;5132698;27;45390;-79
2021/12/09 00:36:54;;;;;;;2.63;1.40;;;17.40;49.60;;;;;;5151593;27;45148;-78
2021/12/09 00:39:23;;;;;;;3.22;1.40;;;17.40;49.50;;;;;;5151037;27;46977;-79
2021/12/09 00:41:50;;;;;;;2.25;1.45;;;17.40;50.70;;;;;;5150523;27;45166;-78
2021/12/09 00:44:19;;;;;;;2.20;1.17;;;17.40;50.10;;;;;;5152663;27;45160;-79
2021/12/09 00:46:50;;;;;;;3.13;1.52;;;17.40;49.40;;;;;;5172666;27;45448;-79
2021/12/09 00:49:20;;;;;;;4.90;1.40;;;17.40;49.50;;;;;;5161789;27;47340;-79
2021/12/09 00:51:50;;;;;;;3.67;1.63;;;17.50;49.90;;;;;;5132512;27;45273;-79
2021/12/09 00:54:26;;;;;;;2.38;1.45;;;17.40;49.70;;;;;;5152075;27;45194;-79
2021/12/09 00:56:54;;;;;;;3.00;1.33;;;17.40;48.20;;;;;;5149794;27;45595;-79
2021/12/09 00:59:21;;;;;;;2.70;1.30;;;17.40;48.30;;;;;;5150451;27;48046;-79
2021/12/09 01:01:50;;;;;;;1.70;1.08;;;17.40;48.30;;;;;;5135742;27;45294;-78
2021/12/09 01:04:17;;;;;;;2.42;1.10;;;17.40;48.10;;;;;;5131615;27;45170;-78
2021/12/09 01:06:51;;;;;;;2.42;1.63;;;17.40;48.30;;;;;;5151373;27;45511;-79
2021/12/09 01:09:20;;;;;;;3.63;1.30;;;17.40;47.70;;;;;;5151176;27;47694;-78
2021/12/09 01:11:50;;;;;;;1.95;1.27;;;17.40;47.30;;;;;;5132433;27;45367;-78
2021/12/09 01:14:20;;;;;;;1.75;1.13;;;17.40;47.20;;;;;;5151266;27;45225;-78
2021/12/09 01:16:50;;;;;;;1.73;1.08;;;17.40;47.40;;;;;;5148249;27;45507;-79
2021/12/09 01:19:18;;;;;;;2.53;1.17;;;17.40;47.80;;;;;;5147301;27;47241;-78
2021/12/09 01:21:49;;;;;;;2.47;1.20;;;17.40;47.40;;;;;;5144393;27;45768;-78
2021/12/09 01:24:18;;;;;;;2.95;1.20;;;17.40;47.50;;;;;;5144373;27;45186;-78
2021/12/09 01:26:48;;;;;;;2.92;1.23;;;17.40;47.50;;;;;;5143066;27;45335;-79
2021/12/09 01:29:21;;;;;;;1.98;1.17;;;17.40;47.80;;;;;;5132572;27;46280;-78
2021/12/09 01:31:59;;;;;;;1.65;1.20;;;17.40;48.00;;;;;;5150901;27;45367;-78
2021/12/09 01:34:31;;;;;;;2.50;1.27;;;17.40;48.20;;;;;;5150280;27;45162;-78
2021/12/09 01:37:00;;;;;;;1.33;0.77;;;17.40;48.00;;;;;;5150484;27;45436;-78
2021/12/09 01:39:33;;;;;;;1.80;0.85;;;17.40;48.80;;;;;;5147893;27;46549;-77
2021/12/09 01:42:01;;;;;;;2.08;1.00;;;17.40;48.70;;;;;;5150797;27;45288;-77
2021/12/09 01:44:28;;;;;;;2.47;1.20;;;17.40;48.80;;;;;;5149956;27;45330;-77
2021/12/09 01:46:56;;;;;;;1.33;1.10;;;17.40;48.30;;;;;;5149876;27;45252;-77
2021/12/09 01:49:23;;;;;;;3.05;1.30;;;17.40;48.30;;;;;;5141472;27;48034;-77
2021/12/09 01:51:51;;;;;;;1.50;0.93;;;17.40;48.90;;;;;;5149679;27;45353;-77
2021/12/09 01:54:18;;;;;;;2.05;1.10;;;17.40;47.50;;;;;;5150932;27;45235;-77
2021/12/09 01:56:46;;;;;;;2.28;1.20;;;17.40;47.20;;;;;;5150209;27;45158;-77
2021/12/09 01:59:14;;;;;;;1.70;1.02;;;17.40;47.20;;;;;;5150022;27;46422;-77
2021/12/09 02:01:41;;;;;;;1.67;1.13;;;17.40;47.10;;;;;;5154067;27;45228;-77
2021/12/09 02:04:10;;;;;;;3.22;1.00;;;17.40;47.20;;;;;;5160966;27;45223;-77
2021/12/09 02:06:40;;;;;;;2.03;1.15;;;17.40;46.80;;;;;;5150137;27;45221;-77
2021/12/09 02:09:09;;;;;;;2.30;1.20;;;17.40;46.90;;;;;;5149303;27;47117;-77
2021/12/09 02:11:36;;;;;;;1.75;1.25;;;17.30;46.60;;;;;;5148836;27;45232;-77
2021/12/09 02:14:06;;;;;;;3.67;1.10;;;17.30;46.40;;;;;;5150266;27;45273;-77
2021/12/09 02:16:35;;;;;;;1.73;1.00;;;17.40;46.60;;;;;;5147647;27;45260;-77
2021/12/09 02:19:03;;;;;;;1.45;1.00;;;17.40;47.10;;;;;;5148931;27;45336;-77
2021/12/09 02:21:35;;;;;;;1.90;1.10;;;17.40;47.60;;;;;;5135542;27;45422;-77
2021/12/09 02:24:05;;;;;;;2.33;0.98;;;17.50;47.00;;;;;;5140736;27;45220;-77
2021/12/09 02:26:35;;;;;;;1.52;1.00;;;17.40;47.40;;;;;;5122059;27;45537;-78
2021/12/09 02:29:04;;;;;;;2.38;1.20;;;17.40;47.50;;;;;;5140761;27;47310;-77
2021/12/09 02:31:32;;;;;;;1.70;1.10;;;17.40;47.80;;;;;;5138151;27;45668;-78
2021/12/09 02:34:02;;;;;;;3.00;1.10;;;17.40;47.70;;;;;;5149127;27;45170;-78
2021/12/09 02:36:30;;;;;;;1.90;1.10;;;17.40;47.20;;;;;;5148593;27;45400;-77
2021/12/09 02:38:59;;;;;;;3.10;1.25;;;17.40;46.50;;;;;;5138767;27;47103;-78
2021/12/09 02:41:28;;;;;;;2.13;1.20;;;17.40;46.30;;;;;;5131126;27;45154;-78
2021/12/09 02:44:02;;;;;;;2.55;1.05;;;17.40;46.20;;;;;;5148297;27;45490;-78
2021/12/09 02:46:38;;;;;;;3.08;1.35;;;17.40;46.10;;;;;;5149794;27;45200;-78
2021/12/09 02:49:08;;;;;;;1.63;0.88;;;17.30;46.10;;;;;;5116171;27;46824;-78
2021/12/09 02:51:36;;;;;;;1.63;0.90;;;17.30;46.20;;;;;;5148559;27;45599;-78
2021/12/09 02:54:08;;;;;;;4.15;1.40;;;17.30;45.90;;;;;;5153021;27;45268;-78
2021/12/09 02:56:36;;;;;;;2.38;0.95;;;17.30;46.00;;;;;;5153389;27;45137;-78
2021/12/09 02:59:06;;;;;;;2.45;1.02;;;17.30;45.80;;;;;;5146158;27;48042;-78
2021/12/09 03:01:37;;;;;;;4.07;1.02;;;17.40;45.90;;;;;;5151272;27;45170;-78
2021/12/09 03:04:08;;;;;;;1.13;0.80;;;17.30;45.60;;;;;;5153348;27;45305;-78
2021/12/09 03:06:38;;;;;;;2.33;1.10;;;17.30;45.50;;;;;;5150490;27;45118;-78
2021/12/09 03:09:09;;;;;;;3.75;1.25;;;17.30;46.10;;;;;;5152656;27;48216;-78
2021/12/09 03:11:38;;;;;;;1.20;0.90;;;17.40;45.90;;;;;;5153322;27;45170;-78
2021/12/09 03:14:07;;;;;;;1.98;1.15;;;17.30;45.90;;;;;;5153655;27;45401;-78
2021/12/09 03:16:36;;;;;;;2.85;1.05;;;17.40;46.20;;;;;;5151484;27;45571;-78
2021/12/09 03:19:08;;;;;;;1.95;1.00;;;17.30;46.30;;;;;;5153153;27;46443;-78
2021/12/09 03:21:38;;;;;;;1.80;1.10;;;17.40;46.70;;;;;;5150836;27;45484;-78
2021/12/09 03:24:10;;;;;;;2.42;0.90;;;17.30;46.30;;;;;;5132441;27;45321;-78
2021/12/09 03:26:39;;;;;;;2.83;1.00;;;17.40;46.30;;;;;;5151342;27;45158;-78
2021/12/09 03:29:16;;;;;;;2.92;1.33;;;17.40;46.20;;;;;;5151536;27;47886;-78
2021/12/09 03:31:51;;;;;;;1.85;1.00;;;17.40;45.70;;;;;;5131475;27;45296;-78
2021/12/09 03:34:24;;;;;;;1.88;1.05;;;17.30;45.50;;;;;;5133037;27;45144;-78
2021/12/09 03:37:00;;;;;;;3.03;1.20;;;17.30;45.10;;;;;;5151362;27;45253;-78
2021/12/09 03:39:32;;;;;;;2.75;1.20;;;17.30;45.50;;;;;;5150638;27;46249;-78
2021/12/09 03:42:01;;;;;;;2.40;1.00;;;17.30;45.50;;;;;;5151545;27;45246;-78
2021/12/09 03:44:30;;;;;;;2.88;1.00;;;17.30;45.50;;;;;;5152660;27;45269;-78
2021/12/09 03:47:06;;;;;;;3.22;1.20;;;17.30;45.20;;;;;;5151019;27;45325;-78
2021/12/09 03:49:34;;;;;;;2.28;1.15;;;17.30;45.10;;;;;;5151407;27;45511;-78
2021/12/09 03:52:02;;;;;;;1.98;1.10;;;17.30;45.10;;;;;;5152091;27;45246;-78
2021/12/09 03:54:32;;;;;;;2.47;1.10;;;17.30;45.10;;;;;;5150657;27;45330;-79
2021/12/09 03:57:01;;;;;;;2.65;1.00;;;17.30;45.00;;;;;;5151543;27;45475;-78
2021/12/09 03:59:29;;;;;;;2.10;1.00;;;17.50;45.10;;;;;;5151853;27;46570;-78
2021/12/09 04:01:56;;;;;;;1.92;1.20;;;17.30;45.10;;;;;;5151632;27;46566;-78
2021/12/09 04:04:27;;;;;;;1.60;1.13;;;17.30;44.60;;;;;;5150509;27;45403;-78
2021/12/09 04:06:54;;;;;;;2.95;1.23;;;17.30;44.90;;;;;;5151910;27;45275;-78
2021/12/09 04:09:23;;;;;;;2.33;1.10;;;17.30;45.40;;;;;;5150070;27;47335;-78
2021/12/09 04:11:53;;;;;;;2.55;1.23;;;17.30;44.30;;;;;;5148105;27;45304;-78
2021/12/09 04:14:21;;;;;;;2.60;1.10;;;17.30;44.30;;;;;;5152311;27;45165;-78
2021/12/09 04:16:49;;;;;;;2.95;0.98;;;17.30;44.50;;;;;;5152247;27;45447;-78
2021/12/09 04:19:16;;;;;;;3.40;1.13;;;17.30;44.20;;;;;;5138393;27;47921;-78
2021/12/09 04:21:50;;;;;;;3.40;1.02;;;17.30;44.00;;;;;;5139209;27;45150;-78
2021/12/09 04:24:22;;;;;;;2.28;1.15;;;17.30;44.10;;;;;;5150659;27;45261;-78
2021/12/09 04:26:56;;;;;;;2.38;1.10;;;17.30;44.00;;;;;;5140572;27;45279;-78
2021/12/09 04:29:24;;;;;;;3.17;1.40;;;17.30;44.00;;;;;;5150382;27;46710;-78
2021/12/09 04:31:51;;;;;;;3.65;1.40;;;17.30;43.90;;;;;;5143575;27;45536;-78
2021/12/09 04:34:20;;;;;;;2.33;1.15;;;17.30;44.00;;;;;;5150284;27;45351;-78
2021/12/09 04:36:49;;;;;;;2.67;1.40;;;17.30;44.00;;;;;;5145768;27;45407;-78
2021/12/09 04:39:19;;;;;;;3.30;1.27;;;17.30;44.00;;;;;;5151252;27;47909;-77
2021/12/09 04:41:47;;;;;;;2.15;1.00;;;17.30;44.00;;;;;;5151289;27;45326;-77
2021/12/09 04:44:15;;;;;;;4.05;1.55;;;17.30;46.60;;;;;;5149092;27;45290;-77
2021/12/09 04:46:42;;;;;;;2.80;1.40;;;17.30;46.20;;;;;;5148397;27;45297;-77
2021/12/09 04:49:09;;;;;;;2.47;1.23;;;17.30;45.40;;;;;;5150553;27;47099;-77
2021/12/09 04:51:36;;;;;;;2.03;1.08;;;17.30;45.40;;;;;;5150208;27;45149;-76
2021/12/09 04:54:04;;;;;;;3.33;1.30;;;17.30;44.80;;;;;;5151723;27;45252;-77
2021/12/09 04:56:31;;;;;;;2.08;1.17;;;17.30;44.60;;;;;;5151551;27;45213;-77
2021/12/09 04:58:58;;;;;;;2.53;1.17;;;17.30;44.60;;;;;;5145537;27;46279;-77
2021/12/09 05:01:27;;;;;;;2.10;1.30;;;17.40;44.60;;;;;;5151101;27;45237;-77
2021/12/09 05:03:55;;;;;;;1.98;1.38;;;17.30;44.20;;;;;;5150290;27;45285;-77
2021/12/09 05:06:23;;;;;;;3.22;1.33;;;17.30;44.60;;;;;;5152181;27;45502;-77
2021/12/09 05:08:51;;;;;;;2.25;1.10;;;17.30;44.60;;;;;;5149261;27;45705;-77
2021/12/09 05:11:32;;;;;;;2.63;1.08;;;17.50;44.30;;;;;;5148861;27;45243;-77
2021/12/09 05:13:59;;;;;;;1.45;1.00;;;17.30;44.00;;;;;;5130646;27;45269;-77
2021/12/09 05:16:28;;;;;;;2.78;1.30;;;17.30;44.00;;;;;;5355913;22;45447;-76
2021/12/09 05:18:58;;;;;;;3.92;1.42;;;17.30;44.00;;;;;;5125268;27;47338;-76
2021/12/09 05:21:28;;;;;;;1.90;1.10;;;17.30;44.00;;;;;;5129254;27;45835;-77
2021/12/09 05:23:57;;;;;;;4.30;1.40;;;17.20;43.90;;;;;;5126278;27;45288;-77
2021/12/09 05:26:27;;;;;;;2.10;1.40;;;17.20;43.90;;;;;;5129563;27;45291;-77
2021/12/09 05:28:57;;;;;;;2.97;1.30;;;17.20;43.90;;;;;;5129973;27;47387;-77
2021/12/09 05:34:12;;;;;;;2.67;1.20;;;17.20;43.70;;;;;;5130141;27;45328;-77
2021/12/09 05:36:39;;;;;;;2.65;1.33;;;17.30;43.70;;;;;;5129766;27;45292;-77
2021/12/09 05:39:09;;;;;;;3.05;1.30;;;17.30;44.20;;;;;;5128950;27;45599;-77
2021/12/09 05:41:37;;;;;;;2.60;1.20;;;17.20;43.50;;;;;;5130758;27;45242;-77
2021/12/09 05:44:05;;;;;;;1.83;1.02;;;17.20;43.50;;;;;;5131010;27;45158;-77
2021/12/09 05:46:35;;;;;;;2.53;1.33;;;17.20;43.80;;;;;;5129715;27;45682;-76
2021/12/09 05:49:02;;;;;;;3.22;1.55;;;17.20;43.60;;;;;;5127501;27;45273;-77
2021/12/09 05:51:30;;;;;;;4.18;1.40;;;17.20;43.50;;;;;;5128286;27;45288;-77
2021/12/09 05:53:57;;;;;;;2.53;1.35;;;17.20;43.50;;;;;;5129205;27;45314;-77
2021/12/09 05:56:25;;;;;;;4.03;1.50;;;17.30;43.40;;;;;;5127997;27;45282;-77
2021/12/09 05:58:52;;;;;;;3.25;1.30;;;17.20;43.50;;;;;;5128872;27;46595;-77
2021/12/09 06:01:20;;;;;;;2.58;1.23;;;17.20;43.30;;;;;;5130211;27;45288;-77
2021/12/09 06:03:47;;;;;;;3.05;1.40;;;17.20;43.40;;;;;;5129361;27;45398;-77
2021/12/09 06:06:14;;;;;;;2.00;1.10;;;17.20;43.30;;;;;;5128623;27;45290;-77
2021/12/09 06:08:43;;;;;;;1.75;1.10;;;17.20;43.90;;;;;;5126135;27;45980;-77
2021/12/09 06:11:12;;;;;;;3.53;1.17;;;17.20;44.60;;;;;;5121254;27;45171;-77
2021/12/09 06:13:40;;;;;;;2.80;1.10;;;17.20;45.00;;;;;;5125555;27;45379;-77
2021/12/09 06:16:09;;;;;;;2.88;1.05;;;17.20;45.30;;;;;;5125112;27;45183;-76
2021/12/09 06:18:37;;;;;;;3.20;1.33;;;17.20;44.70;;;;;;5122397;27;46459;-76
2021/12/09 06:21:04;;;;;;;2.95;1.48;;;17.20;44.40;;;;;;5129066;27;45352;-76
2021/12/09 06:23:31;;;;;;;2.25;1.27;;;17.20;44.40;;;;;;5114180;27;45317;-76
2021/12/09 06:25:59;;;;;;;3.78;1.30;;;17.20;44.80;;;;;;5124075;27;45138;-76
2021/12/09 06:28:26;;;;;;;3.00;1.25;;;17.20;45.30;;;;;;5126224;27;47052;-76
2021/12/09 06:30:53;;;;;;;2.92;1.50;;;17.20;45.70;;;;;;5129337;27;45266;-76
2021/12/09 06:33:20;;;;;;;4.95;1.50;;;17.20;46.20;;;;;;5121294;27;45166;-76
2021/12/09 06:35:47;;;;;;;2.20;1.38;;;17.20;45.80;;;;;;5125894;27;45246;-76
2021/12/09 06:38:16;;;;;;;3.05;1.38;;;17.20;45.00;;;;;;5117958;27;47347;-76
2021/12/09 06:40:43;;;;;;;3.22;1.45;;;17.20;44.80;;;;;;5126450;27;46084;-76
2021/12/09 06:43:12;;;;;;;2.63;1.30;;;17.20;44.80;;;;;;5122574;27;45509;-76
2021/12/09 06:45:40;;;;;;;3.90;1.30;;;17.20;44.30;;;;;;5126149;27;45348;-76
2021/12/09 06:48:07;;;;;;;1.85;1.17;;;17.30;45.00;;;;;;5123283;27;45323;-76
2021/12/09 06:50:34;;;;;;;2.08;1.13;;;17.30;45.50;;;;;;5130356;27;45534;-76
2021/12/09 06:53:00;;;;;;;1.67;1.00;;;17.30;45.90;;;;;;5131851;27;45215;-76
2021/12/09 06:55:27;;;;;;;2.15;1.17;;;17.30;46.20;;;;;;5131538;27;45197;-76
2021/12/09 06:57:54;;;;;;;1.75;1.08;;;17.30;46.40;;;;;;5133770;27;47423;-76
2021/12/09 07:00:25;;;;;;;1.33;0.93;;;17.30;46.70;;;;;;5124252;27;45229;-76
2021/12/09 07:02:53;;;;;;;3.25;0.98;;;17.30;46.90;;;;;;5133213;27;45184;-76
2021/12/09 07:05:22;;;;;;;2.88;1.13;;;17.30;47.00;;;;;;5133856;27;45138;-76
2021/12/09 07:07:50;;;;;;;2.05;1.00;;;17.30;47.00;;;;;;5131225;27;47424;-76
2021/12/09 07:10:18;;;;;;;2.10;1.00;;;17.30;46.80;;;;;;5132631;27;45220;-76
2021/12/09 07:12:45;;;;;;;2.03;1.02;;;17.30;46.00;;;;;;5131449;27;45250;-76
2021/12/09 07:15:14;;;;;;;1.83;0.90;;;17.30;46.10;;;;;;5132432;27;45331;-77
2021/12/09 07:17:42;;;;;;;1.70;1.00;;;17.30;46.60;;;;;;5131993;27;48494;-77
2021/12/09 07:20:12;;;;;;;1.67;1.00;;;17.30;46.70;;;;;;5133308;27;45588;-77
2021/12/09 07:22:39;;;;;;;2.47;1.20;;;17.30;46.90;;;;;;5125888;27;45229;-77
2021/12/09 07:25:08;;;;;;;4.15;1.17;;;17.30;46.50;;;;;;5130081;27;45413;-77
2021/12/09 07:27:35;;;;;;;2.20;1.13;;;17.30;45.80;;;;;;5133142;27;45981;-77
2021/12/09 07:30:02;;;;;;;3.30;1.17;;;17.30;45.30;;;;;;5130853;27;45525;-77
2021/12/09 07:32:29;;;;;;;2.53;1.52;;;17.30;45.30;;;;;;5130491;27;45332;-80
2021/12/09 07:34:57;;;;;;;3.20;1.20;;;17.30;44.70;;;;;;5131948;27;45297;-77
2021/12/09 07:37:24;;;;;;;3.03;1.23;;;17.30;44.60;;;;;;5130458;27;45242;-76
2021/12/09 07:39:51;;;;;;;2.83;1.05;;;17.30;44.50;;;;;;5129811;27;45210;-76
2021/12/09 07:42:18;;;;;;;2.70;1.42;;;17.30;44.70;;;;;;5131013;27;45260;-77
2021/12/09 07:44:46;;;;;;;4.28;1.38;;;17.30;44.40;;;;;;5122210;27;45299;-77
2021/12/09 07:47:12;;;;;;;2.47;1.30;;;17.30;44.50;;;;;;5122923;27;47321;-77
2021/12/09 07:49:40;;;;;;;2.42;1.30;;;17.30;44.30;;;;;;5130655;27;45147;-77
2021/12/09 07:52:08;;;;;;;3.78;1.40;;;17.40;44.40;;;;;;5129827;27;45668;-77
2021/12/09 07:54:35;;;;;;;3.53;1.33;;;17.30;44.30;;;;;;5130485;27;45342;-77
2021/12/09 07:57:03;;;;;;;2.70;1.10;;;17.30;44.20;;;;;;5131370;27;47265;-78
2021/12/09 07:59:30;;;;;;;3.08;1.50;;;17.30;44.20;;;;;;5128985;27;45557;-78
2021/12/09 08:01:57;;;;;;;2.33;1.10;;;17.30;44.00;;;;;;5131157;27;45297;-78
2021/12/09 08:04:24;;;;;;;3.03;1.20;;;17.30;43.90;;;;;;5132036;27;45362;-77
2021/12/09 08:06:51;;;;;;;2.38;1.20;;;17.30;43.80;;;;;;5130329;27;47154;-77
2021/12/09 08:09:20;;;;;;;1.95;1.20;;;17.30;43.70;;;;;;5131034;27;45451;-77
2021/12/09 08:11:47;;;;;;;3.33;1.30;;;17.30;43.70;;;;;;5124419;27;45249;-77
2021/12/09 08:14:16;;;;;;;2.95;1.40;;;17.30;43.60;;;;;;5125773;27;45342;-77
2021/12/09 08:16:43;;;;;;;2.40;1.25;;;17.30;44.00;;;;;;5130083;27;48521;-77
2021/12/09 08:19:12;;;;;;;3.92;1.20;;;17.30;43.60;;;;;;5129227;27;45268;-77
2021/12/09 08:21:40;;;;;;;3.40;1.30;;;17.40;43.60;;;;;;5128562;27;45228;-77
2021/12/09 08:24:10;;;;;;;2.67;1.38;;;17.30;43.60;;;;;;5109844;27;45487;-77
2021/12/09 08:26:39;;;;;;;2.78;1.13;;;17.30;43.70;;;;;;5128189;27;48455;-77
2021/12/09 08:29:07;;;;;;;2.88;1.38;;;17.40;43.70;;;;;;5129872;27;45571;-78
2021/12/09 08:31:35;;;;;;;2.22;1.20;;;17.30;43.70;;;;;;5129559;27;45258;-78
2021/12/09 08:34:02;;;;;;;2.60;1.38;;;17.30;43.80;;;;;;5129902;27;45248;-78
2021/12/09 08:36:29;;;;;;;2.08;0.95;;;17.30;43.80;;;;;;5128221;27;46578;-78
2021/12/09 08:38:56;;;;;;;1.52;1.00;;;17.30;43.80;;;;;;5127623;27;45375;-78
2021/12/09 08:41:24;;;;;;;2.33;1.10;;;17.30;43.80;;;;;;5129845;27;45474;-78
2021/12/09 08:43:52;;;;;;;2.05;1.05;;;17.30;43.90;;;;;;5130162;27;45272;-78
2021/12/09 08:46:19;;;;;;;2.70;1.10;;;17.30;44.00;;;;;;5128346;27;47682;-78
2021/12/09 08:48:47;;;;;;;2.13;0.90;;;17.30;43.80;;;;;;5128446;27;45207;-78
2021/12/09 08:51:15;;;;;;;1.92;1.02;;;17.30;43.90;;;;;;5128583;27;45551;-78
2021/12/09 08:53:42;;;;;;;3.50;1.60;;;17.30;43.80;;;;;;5128042;27;45338;-78
2021/12/09 08:56:09;;;;;;;4.03;1.40;;;17.30;43.70;;;;;;5128935;27;46226;-78
2021/12/09 08:58:35;;;;;;;2.25;1.20;;;17.30;43.70;;;;;;5128719;27;45419;-78
2021/12/09 09:01:04;;;;;;;2.03;0.77;;;17.30;43.70;;;;;;5128694;27;45237;-78
2021/12/09 09:03:31;;;;;;;1.48;0.88;;;17.30;43.70;;;;;;5129766;27;45278;-78
2021/12/09 09:05:59;;;;;;;2.72;1.08;;;17.30;43.70;;;;;;5127294;27;46599;-78
2021/12/09 09:08:27;;;;;;;2.50;1.23;;;17.30;43.80;;;;;;5129729;27;45331;-77
2021/12/09 09:10:53;;;;;;;2.45;1.10;;;17.30;44.90;;;;;;5127556;27;45440;-77
2021/12/09 09:13:20;;;;;;;2.65;0.90;;;17.40;46.00;;;;;;5111487;27;45508;-77
2021/12/09 09:15:48;;;;;;;1.52;0.90;;;17.30;45.60;;;;;;5127362;27;47924;-77
2021/12/09 09:18:17;;;;;;;1.92;1.17;;;17.30;45.10;;;;;;5128791;27;45253;-77
2021/12/09 09:20:46;;;;;;;2.55;1.20;;;17.30;44.80;;;;;;5129018;27;45290;-77
2021/12/09 09:23:16;;;;;;;2.22;1.00;;;17.40;44.90;;;;;;5117905;27;45639;-77
2021/12/09 09:25:44;;;;;;;2.70;1.00;;;17.30;44.60;;;;;;5119074;27;46127;-77
2021/12/09 09:28:11;;;;;;;5.40;1.30;;;17.30;44.60;;;;;;5129075;27;45288;-77
2021/12/09 09:30:45;;;;;;;4.70;1.40;;;17.30;44.70;;;;;;5125697;27;45415;-77
2021/12/09 09:33:15;;;;;;;2.80;1.20;;;17.30;44.60;;;;;;5128712;27;45525;-77
2021/12/09 09:35:44;;;;;;;2.72;1.23;;;17.30;44.50;;;;;;5128828;27;45176;-77
2021/12/09 09:38:12;;;;;;;2.30;1.52;;;17.30;44.50;;;;;;5125861;27;45301;-77
2021/12/09 09:40:45;;;;;;;2.50;1.23;;;17.30;44.40;;;;;;5127430;27;45256;-77
2021/12/09 09:43:27;;;;;;;2.60;1.20;;;17.30;44.30;;;;;;5128063;27;45391;-77
2021/12/09 09:45:54;;;;;;;1.90;1.25;;;17.30;44.40;;;;;;5128366;27;46551;-77
2021/12/09 09:48:22;;;;;;;2.35;1.20;;;17.30;44.50;;;;;;5128995;27;45485;-77
2021/12/09 09:50:50;;;;;;;2.97;1.23;;;17.40;44.50;;;;;;5126131;27;45371;-77
2021/12/09 09:53:18;;;;;;;1.95;0.98;;;17.40;44.60;;;;;;5128502;27;45546;-77
2021/12/09 09:55:47;;;;;;;2.13;1.17;;;17.40;44.70;;;;;;5127588;27;47253;-76
2021/12/09 09:58:14;;;;;;;2.92;1.38;;;17.40;44.50;;;;;;5108333;27;45924;-77
2021/12/09 10:00:41;;;;;;;2.35;1.15;;;17.40;44.50;;;;;;5121926;27;45413;-77
2021/12/09 10:03:16;;;;;;;2.33;1.02;;;17.40;44.70;;;;;;5128717;27;45356;-77
2021/12/09 10:05:44;;;;;;;2.35;0.80;;;17.30;44.50;;;;;;5127922;27;45275;-77
2021/12/09 10:08:14;;;;;;;3.90;1.33;;;17.30;44.60;;;;;;5127781;27;46053;-77
2021/12/09 10:10:42;;;;;;;2.88;1.27;;;17.30;44.60;;;;;;5127137;27;45279;-77
2021/12/09 10:13:13;;;;;;;1.60;0.82;;;17.30;44.70;;;;;;5128180;27;45575;-77
2021/12/09 10:15:44;;;;;;;5.30;1.52;;;17.30;44.80;;;;;;5127550;27;48563;-77
2021/12/09 10:18:12;;;;;;;3.33;1.58;;;17.30;44.90;;;;;;5125851;27;45205;-77
2021/12/09 10:20:46;;;;;;;2.20;1.20;;;17.30;44.90;;;;;;5127067;27;45480;-77
2021/12/09 10:23:35;;;;;;;1.88;1.35;;;17.30;45.00;;;;;;5113450;27;45289;-77
2021/12/09 10:26:21;;;;;;;2.72;1.35;;;17.30;45.00;;;;;;5124683;27;47658;-77
2021/12/09 10:28:56;;;;;;;1.55;0.90;;;17.40;45.20;;;;;;5128065;27;45315;-77
2021/12/09 10:31:28;;;;;;;2.85;1.30;;;17.40;45.10;;;;;;5121962;27;45185;-77
2021/12/09 10:34:12;;;;;;;1.92;1.23;;;17.40;45.10;;;;;;5128438;27;45324;-77
2021/12/09 10:36:44;;;;;;;1.75;1.20;;;17.40;45.10;;;;;;5127636;27;45740;-77
2021/12/09 10:39:32;;;;;;;3.08;1.30;;;17.40;45.00;;;;;;5127036;27;45366;-77
2021/12/09 10:42:01;;;;;;;2.03;1.17;;;17.40;45.00;;;;;;5127279;27;45537;-77
2021/12/09 10:44:39;;;;;;;3.58;1.50;;;17.40;45.10;;;;;;5128062;27;45143;-77
2021/12/09 10:47:11;;;;;;;3.03;1.65;;;17.40;44.90;;;;;;5127687;27;45387;-77
2021/12/09 10:50:03;;;;;;;2.38;1.17;;;17.40;45.00;;;;;;5126007;27;45534;-77
2021/12/09 10:52:38;;;;;;;2.67;1.25;;;17.40;44.90;;;;;;5127464;27;45684;-77
2021/12/09 10:55:14;;;;;;;3.00;1.02;;;17.40;44.90;;;;;;5126683;27;45428;-77
2021/12/09 10:57:41;;;;;;;2.40;1.10;;;17.40;45.00;;;;;;5125484;27;47413;-77
2021/12/09 11:00:24;;;;;;;2.80;1.30;;;17.40;45.00;;;;;;5119002;27;45303;-77
2021/12/09 11:03:07;;;;;;;2.00;1.15;;;17.40;44.90;;;;;;5107602;27;45291;-77
2021/12/09 11:05:36;;;;;;;2.15;1.02;;;17.40;45.10;;;;;;5115378;27;45288;-77
2021/12/09 11:08:22;;;;;;;4.28;1.45;;;17.30;45.00;;;;;;5126669;27;45770;-77
2021/12/09 11:10:57;;;;;;;3.72;1.27;;;17.30;46.40;;;;;;5125302;27;46055;-77
2021/12/09 11:13:23;;;;;;;2.35;1.20;;;17.40;45.10;;;;;;5128544;27;45452;-77
2021/12/09 11:15:54;;;;;;;3.53;1.27;;;17.40;45.20;;;;;;5129844;27;45359;-77
2021/12/09 11:18:34;;;;;;;2.72;1.52;;;17.40;45.20;;;;;;5129593;27;47235;-77
2021/12/09 11:21:08;;;;;;;1.67;0.98;;;17.40;45.30;;;;;;5130265;27;45516;-77
2021/12/09 11:23:45;;;;;;;1.63;0.90;;;17.40;45.10;;;;;;5128527;27;46804;-77
2021/12/09 11:26:37;;;;;;;2.75;1.40;;;17.40;45.40;;;;;;5129399;27;45480;-77
2021/12/09 11:29:09;;;;;;;2.25;1.20;;;17.40;45.20;;;;;;5143937;27;46519;-77
2021/12/09 11:31:46;;;;;;;1.88;1.08;;;17.40;45.40;;;;;;5144628;27;45299;-77
2021/12/09 11:34:17;;;;;;;4.00;1.58;;;17.40;45.20;;;;;;5129833;27;45217;-77
2021/12/09 11:36:56;;;;;;;2.95;1.17;;;17.40;45.10;;;;;;5129871;27;45265;-76
2021/12/09 11:39:31;;;;;;;2.58;1.02;;;17.40;45.10;;;;;;5126857;27;47372;-76
2021/12/09 11:42:11;;;;;;;2.55;1.08;;;17.40;45.10;;;;;;5130562;27;45320;-76
2021/12/09 11:44:38;;;;;;;2.15;1.08;;;17.40;45.10;;;;;;5130815;27;45258;-76
2021/12/09 11:47:05;;;;;;;1.70;1.05;;;17.40;45.10;;;;;;5129031;27;45332;-76
2021/12/09 11:49:32;;;;;;;1.05;0.93;;;17.40;45.20;;;;;;5129830;27;47148;-76
2021/12/09 11:51:59;;;;;;;3.08;1.20;;;17.40;45.20;;;;;;5128987;27;45563;-76
2021/12/09 11:54:27;;;;;;;3.30;1.45;;;17.40;45.20;;;;;;5128593;27;45356;-76
2021/12/09 11:57:09;;;;;;;1.90;1.15;;;17.40;45.20;;;;;;5128619;27;45535;-77
2021/12/09 12:06:38;;;;;;;1.60;1.05;;;17.40;45.30;;;;;;5129426;27;47575;-77
2021/12/09 12:11:39;;;;;;;1.55;1.17;;;17.40;45.20;;;;;;5127005;27;45358;-77
2021/12/09 12:14:28;;;;;;;2.00;1.08;;;17.40;45.30;;;;;;5123669;27;45284;-77
2021/12/09 12:17:13;;;;;;;1.17;0.98;;;17.40;45.20;;;;;;5125454;27;45322;-77
2021/12/09 12:20:16;;;;;;;2.13;1.00;;;17.40;45.50;;;;;;5127509;27;45210;-77
2021/12/09 12:26:03;;;;;;;2.17;1.10;;;17.40;45.10;;;;;;5114868;27;45498;-77
2021/12/09 12:28:44;;;;;;;1.90;1.17;;;17.40;45.10;;;;;;5128462;27;45549;-77
2021/12/09 12:31:46;;;;;;;3.38;1.10;;;17.40;45.20;;;;;;5128479;27;45453;-77
2021/12/09 12:40:07;;;;;;;1.38;0.88;;;17.40;45.30;;;;;;5123521;27;45548;-77
2021/12/09 12:42:49;;;;;;;2.58;1.20;;;17.40;45.30;;;;;;5128790;27;45696;-77
2021/12/09 12:45:33;;;;;;;1.92;1.08;;;17.40;45.30;;;;;;5127835;27;47663;-77
2021/12/09 12:48:16;;;;;;;1.50;1.00;;;17.40;45.50;;;;;;5127188;27;45310;-77
2021/12/09 12:51:13;;;;;;;1.83;1.20;;;17.40;45.70;;;;;;5117472;27;45401;-77
2021/12/09 12:53:43;;;;;;;1.40;0.77;;;17.40;45.60;;;;;;5119330;27;45541;-77
2021/12/09 12:56:13;;;;;;;3.45;1.00;;;17.40;45.50;;;;;;5127051;27;45503;-77
2021/12/09 12:58:40;;;;;;;1.42;0.90;;;17.40;45.40;;;;;;5113494;27;45205;-77
2021/12/09 13:01:17;;;;;;;1.63;0.90;;;17.40;45.70;;;;;;5118222;27;45291;-77
2021/12/09 13:03:50;;;;;;;1.20;0.85;;;17.40;45.60;;;;;;5120315;27;45274;-77
2021/12/09 13:06:49;;;;;;;1.27;0.85;;;17.40;45.40;;;;;;5127220;27;46398;-76
2021/12/09 13:09:28;;;;;;;1.30;0.90;;;17.40;45.40;;;;;;5111307;27;45449;-77
2021/12/09 13:12:01;;;;;;;2.35;1.35;;;17.40;45.20;;;;;;5120025;27;45371;-76
2021/12/09 13:14:31;;;;;;;1.23;0.70;;;17.40;45.20;;;;;;5118548;27;45429;-76
2021/12/09 13:17:13;;;;;;;1.63;0.73;;;17.40;45.40;;;;;;5121034;27;47505;-76
2021/12/09 13:19:55;;;;;;;1.65;0.80;;;17.40;45.40;;;;;;5125450;27;45387;-76
2021/12/09 13:22:32;;;;;;;0.80;0.80;;;17.40;45.50;;;;;;5115708;27;45372;-76
2021/12/09 13:25:17;;;;;;;1.27;0.80;;;17.30;45.50;;;;;;5126237;27;45207;-76
2021/12/09 13:27:54;;;;;;;0.80;0.70;;;17.30;45.60;;;;;;5116729;27;47581;-77